Time;durP1;ratioP1;P1;durP2;ratioP2;P2;SDS_P1;SDS_P2;PMS_P1;PMS_P2;Temp;Humidity;BMP_temperature;BMP_pressure;BME280_temperature;BME280_humidity;BME280_pressure;Samples;Min_cycle;Max_cycle;Signal;HPM_P1;HPM_P2
2022/05/23 00:00:17;;;;;;;0.45;0.40;;;;;;;11.00;68.15;99488.50;6209214;23;20072;-74
2022/05/23 00:02:44;;;;;;;2.88;1.10;;;;;;;10.96;68.34;99492.91;6234182;23;20000;-75
2022/05/23 00:05:10;;;;;;;2.63;1.48;;;;;;;10.91;69.45;99482.06;6210278;23;20015;-75
2022/05/23 00:07:40;;;;;;;4.18;1.30;;;;;;;10.83;69.68;99474.47;6234368;23;20014;-75
2022/05/23 00:10:07;;;;;;;4.65;1.10;;;;;;;10.75;70.24;99475.94;6243162;23;20004;-75
2022/05/23 00:12:33;;;;;;;2.75;1.50;;;;;;;10.68;70.16;99467.28;6237080;22;20008;-74
2022/05/23 00:14:59;;;;;;;4.32;1.20;;;;;;;10.65;70.41;99465.13;6210299;23;20015;-75
2022/05/23 00:17:24;;;;;;;1.65;0.82;;;;;;;10.52;70.10;99463.88;6208731;23;20000;-75
2022/05/23 00:19:50;;;;;;;1.17;0.77;;;;;;;10.46;70.39;99467.78;6184061;23;20008;-74
2022/05/23 00:22:16;;;;;;;1.75;1.15;;;;;;;10.41;71.07;99473.28;6264049;23;20042;-76
2022/05/23 00:24:42;;;;;;;2.90;1.08;;;;;;;10.32;71.34;99473.06;6235123;23;20004;-75
2022/05/23 00:27:10;;;;;;;1.42;1.00;;;;;;;10.33;71.57;99474.69;6233363;23;20019;-77
2022/05/23 00:29:36;;;;;;;2.92;1.10;;;;;;;10.28;72.66;99481.03;6233292;23;20095;-75
2022/05/23 00:37:30;;;;;;;3.90;1.10;;;;;;;10.07;73.31;99465.91;6261501;23;20011;-75
2022/05/23 00:39:56;;;;;;;1.75;0.70;;;;;;;9.98;73.02;99454.78;6235980;23;20008;-75
2022/05/23 00:45:14;;;;;;;2.25;0.85;;;;;;;9.93;72.85;99443.91;6263794;22;20062;-77
2022/05/23 00:47:40;;;;;;;1.17;0.82;;;;;;;9.83;73.37;99444.81;6260979;23;20004;-76
2022/05/23 00:50:07;;;;;;;3.65;1.20;;;;;;;9.83;73.39;99446.69;6211758;23;20087;-76
2022/05/23 00:52:38;;;;;;;1.77;0.90;;;;;;;9.79;73.60;99438.28;6235469;23;19995;-75
2022/05/23 00:55:13;;;;;;;3.40;1.10;;;;;;;9.72;74.27;99432.31;6235874;23;20004;-75
2022/05/23 00:57:46;;;;;;;2.78;1.15;;;;;;;9.68;74.68;99426.63;6232398;23;20488;-75
2022/05/23 01:00:15;;;;;;;0.95;0.82;;;;;;;9.71;74.47;99431.50;6229473;23;20023;-74
2022/05/23 01:02:46;;;;;;;7.60;1.10;;;;;;;9.64;74.89;99422.81;6231186;23;20004;-75
2022/05/23 01:05:16;;;;;;;3.20;0.88;;;;;;;9.65;75.51;99421.75;6261660;23;20060;-76
2022/05/23 01:07:46;;;;;;;1.08;0.77;;;;;;;9.60;75.38;99419.84;6209520;23;20014;-75
2022/05/23 01:10:13;;;;;;;3.13;0.90;;;;;;;9.59;75.32;99434.59;6237056;23;20011;-76
2022/05/23 01:13:00;;;;;;;4.70;0.80;;;;;;;9.56;76.06;99424.25;6212008;23;19992;-75
2022/05/23 01:15:28;;;;;;;2.65;1.15;;;;;;;9.50;75.75;99413.66;6232007;22;20008;-75
2022/05/23 01:17:59;;;;;;;3.22;1.20;;;;;;;9.51;77.07;99416.09;6236201;23;20012;-75
2022/05/23 01:23:56;;;;;;;6.97;1.70;;;;;;;9.59;79.11;99418.22;6252195;22;20447;-75
2022/05/23 01:27:21;;;;;;;;;;;;;;;;;;;;;
2022/05/23 01:29:56;;;;;;;3.15;1.75;;;;;;;9.35;78.96;99370.91;6227591;22;20004;-78
2022/05/23 01:39:55;;;;;;;1.92;1.00;;;;;;;9.50;79.96;99395.34;5969842;24;20012;-77
2022/05/23 01:46:43;;;;;;;;;;;;;;;;;;;;;
2022/05/23 01:49:56;;;;;;;;;;;;;;;;;;;;;
2022/05/23 02:03:09;;;;;;;2.72;1.35;;;;;;;9.38;81.27;99329.41;6020714;23;20031;-75
2022/05/23 02:05:40;;;;;;;4.80;1.65;;;;;;;9.66;81.43;99370.69;6020761;23;20122;-75
2022/05/23 02:08:33;;;;;;;2.63;1.30;;;;;;;9.75;81.43;99388.06;6084166;23;20002;-75
2022/05/23 02:11:11;;;;;;;;;;;;;;;;;;;;;
2022/05/23 02:13:45;;;;;;;2.15;1.00;;;;;;;9.82;81.71;99382.28;6215168;23;20007;-74
2022/05/23 02:16:19;;;;;;;1.90;1.23;;;;;;;9.74;81.59;99370.06;6234732;23;20006;-76
2022/05/23 02:19:17;;;;;;;;;;;;;;;;;;;;;
2022/05/23 02:22:04;;;;;;;2.40;1.05;;;;;;;9.79;82.65;99350.91;6257591;23;20036;-74
2022/05/23 02:24:29;;;;;;;2.30;1.25;;;;;;;9.95;82.40;99360.56;6257238;23;20087;-74
2022/05/23 02:27:03;;;;;;;3.88;1.52;;;;;;;10.02;82.07;99370.38;6208373;23;20435;-75
2022/05/23 02:29:29;;;;;;;4.13;1.40;;;;;;;10.06;82.50;99355.00;6230112;23;20000;-74
2022/05/23 02:31:54;;;;;;;3.30;1.30;;;;;;;10.19;82.30;99359.81;6181963;23;20015;-75
2022/05/23 02:34:20;;;;;;;2.75;1.50;;;;;;;10.23;82.66;99354.56;6206413;23;20056;-74
2022/05/23 02:36:46;;;;;;;2.92;1.45;;;;;;;10.28;82.48;99352.59;6206257;23;19984;-74
2022/05/23 02:39:13;;;;;;;1.10;0.90;;;;;;;10.28;82.36;99338.94;6206180;23;20018;-75
2022/05/23 02:41:39;;;;;;;1.38;0.70;;;;;;;10.30;82.32;99342.19;6202637;23;20016;-73
2022/05/23 02:44:06;;;;;;;0.98;0.60;;;;;;;10.20;81.85;99336.03;6227790;22;19996;-74
2022/05/23 02:46:32;;;;;;;1.02;0.70;;;;;;;10.27;81.86;99353.69;6230101;23;19987;-75
2022/05/23 02:48:58;;;;;;;0.60;0.50;;;;;;;10.23;81.89;99338.97;6228631;23;20004;-77
2022/05/23 02:51:23;;;;;;;0.45;0.32;;;;;;;10.23;81.67;99333.50;6254212;23;20051;-76
2022/05/23 02:53:50;;;;;;;0.80;0.60;;;;;;;10.21;82.35;99324.00;6227879;23;20008;-75
2022/05/23 02:56:16;;;;;;;1.95;0.93;;;;;;;10.28;81.82;99330.75;6227909;23;20317;-75
2022/05/23 02:58:42;;;;;;;1.48;0.80;;;;;;;10.35;81.90;99335.06;6228547;23;20455;-76
2022/05/23 03:01:07;;;;;;;1.35;0.80;;;;;;;10.35;81.78;99341.34;6255888;23;20008;-76
2022/05/23 03:03:33;;;;;;;1.73;0.90;;;;;;;10.37;81.60;99339.13;6228577;23;20305;-76
2022/05/23 03:05:59;;;;;;;2.72;1.02;;;;;;;10.36;81.81;99332.03;6175095;23;20007;-76
2022/05/23 03:08:27;;;;;;;2.28;1.13;;;;;;;10.51;81.60;99339.22;6178309;23;20060;-76
2022/05/23 03:10:56;;;;;;;1.75;1.02;;;;;;;10.71;81.69;99331.91;6228410;23;20038;-76
2022/05/23 03:13:22;;;;;;;3.92;1.10;;;;;;;10.88;79.78;99329.47;6229027;22;20061;-76
2022/05/23 03:15:48;;;;;;;1.30;0.88;;;;;;;11.04;79.69;99335.56;6203501;23;20015;-75
2022/05/23 03:18:14;;;;;;;1.95;1.30;;;;;;;11.18;78.83;99335.59;6176848;23;20004;-76
2022/05/23 03:20:40;;;;;;;1.83;0.88;;;;;;;11.24;78.88;99314.44;6179183;23;20008;-75
2022/05/23 03:28:37;;;;;;;2.08;1.20;;;;;;;11.48;77.35;99336.25;6219583;23;20028;-75
2022/05/23 03:31:04;;;;;;;2.45;1.25;;;;;;;11.55;76.98;99328.47;6219465;23;20000;-75
2022/05/23 03:33:30;;;;;;;1.50;1.23;;;;;;;11.60;76.88;99324.84;6225327;23;20012;-74
2022/05/23 03:35:56;;;;;;;2.75;1.50;;;;;;;11.63;77.04;99330.50;6252265;23;20008;-72
2022/05/23 03:38:22;;;;;;;1.80;1.00;;;;;;;11.63;76.68;99325.03;6250519;23;20008;-74
2022/05/23 03:40:48;;;;;;;1.10;0.82;;;;;;;11.63;76.66;99322.28;6227340;23;20018;-73
2022/05/23 03:43:14;;;;;;;0.82;0.60;;;;;;;11.68;76.36;99314.00;6252607;23;20007;-75
2022/05/23 03:45:40;;;;;;;0.88;0.68;;;;;;;11.76;75.80;99304.28;6201555;23;20000;-75
2022/05/23 03:48:06;;;;;;;1.20;0.80;;;;;;;11.83;75.97;99298.41;6225907;23;20052;-75
2022/05/23 03:50:33;;;;;;;1.20;0.70;;;;;;;11.88;75.92;99298.31;6227316;23;20008;-74
2022/05/23 03:53:00;;;;;;;1.85;0.80;;;;;;;11.89;75.53;99294.47;6253865;23;20011;-75
2022/05/23 03:55:26;;;;;;;1.50;1.08;;;;;;;11.84;74.83;99297.28;6222979;23;20032;-74
2022/05/23 03:57:52;;;;;;;2.33;1.00;;;;;;;11.79;75.66;99295.47;6254076;22;20005;-74
2022/05/23 04:00:18;;;;;;;3.15;1.25;;;;;;;11.73;75.97;99290.38;6176757;23;20090;-74
2022/05/23 04:02:44;;;;;;;3.70;1.00;;;;;;;11.76;75.87;99284.31;6228127;23;20035;-74
2022/05/23 04:05:11;;;;;;;0.68;0.68;;;;;;;11.84;76.43;99286.31;6227960;23;20004;-74
2022/05/23 04:07:38;;;;;;;0.90;0.90;;;;;;;11.83;75.73;99290.19;6201373;23;20446;-74
2022/05/23 04:10:11;;;;;;;2.10;1.20;;;;;;;11.87;76.08;99296.69;6254448;23;20004;-75
2022/05/23 04:12:37;;;;;;;2.50;1.63;;;;;;;11.87;76.21;99291.19;6251871;23;20079;-74
2022/05/23 04:15:07;;;;;;;2.53;1.13;;;;;;;11.83;76.29;99287.47;6227268;23;20008;-74
2022/05/23 04:17:33;;;;;;;3.53;1.42;;;;;;;11.81;76.69;99292.41;6225819;23;20126;-74
2022/05/23 04:19:58;;;;;;;1.77;1.00;;;;;;;11.79;76.75;99289.19;6203588;23;20079;-75
2022/05/23 04:22:24;;;;;;;3.65;1.52;;;;;;;11.78;76.68;99276.59;6195219;23;20088;-75
2022/05/23 04:24:49;;;;;;;3.65;1.40;;;;;;;11.79;76.74;99283.69;6249636;23;20008;-74
2022/05/23 04:27:15;;;;;;;1.77;0.95;;;;;;;11.80;76.96;99285.34;6199157;23;20312;-76
2022/05/23 04:29:41;;;;;;;6.82;1.48;;;;;;;11.78;77.26;99282.06;6224230;23;19996;-75
2022/05/23 04:35:12;;;;;;;2.70;1.27;;;;;;;11.76;77.61;99274.16;6201623;23;20481;-76
2022/05/23 04:37:36;;;;;;;4.25;1.65;;;;;;;11.80;78.07;99263.41;6249410;23;20019;-75
2022/05/23 04:40:02;;;;;;;5.50;1.40;;;;;;;11.80;78.07;99269.69;6252385;23;20004;-74
2022/05/23 04:42:28;;;;;;;3.10;1.67;;;;;;;11.81;78.17;99273.25;6223162;23;20004;-74
2022/05/23 04:44:53;;;;;;;4.78;1.60;;;;;;;11.81;79.31;99267.75;6224766;23;19992;-75
2022/05/23 04:50:04;;;;;;;2.45;1.55;;;;;;;11.92;78.57;99266.47;6228222;23;20015;-74
2022/05/23 04:52:29;;;;;;;3.10;1.38;;;;;;;11.97;78.51;99269.16;6199335;23;20008;-75
2022/05/23 04:54:55;;;;;;;2.95;1.90;;;;;;;12.00;78.87;99256.75;6195916;23;20016;-75
2022/05/23 04:57:22;;;;;;;2.25;1.58;;;;;;;12.06;78.51;99263.75;6199063;23;20012;-74
2022/05/23 04:59:47;;;;;;;7.03;1.88;;;;;;;12.12;78.93;99256.25;6222096;23;20034;-74
2022/05/23 05:02:13;;;;;;;3.47;1.48;;;;;;;12.18;78.40;99257.78;6251644;23;20420;-74
2022/05/23 05:04:40;;;;;;;2.13;1.55;;;;;;;12.23;78.67;99261.19;6197865;23;20012;-75
2022/05/23 05:07:06;;;;;;;4.20;1.30;;;;;;;12.28;78.31;99256.75;6222884;23;20046;-74
2022/05/23 05:09:32;;;;;;;1.55;1.30;;;;;;;12.29;78.50;99248.22;6254829;23;20090;-75
2022/05/23 05:11:57;;;;;;;4.15;1.38;;;;;;;12.33;77.96;99249.22;6248654;23;20030;-75
2022/05/23 05:14:23;;;;;;;1.67;1.13;;;;;;;12.40;78.20;99254.31;6225875;23;20008;-74
2022/05/23 05:16:49;;;;;;;2.80;1.60;;;;;;;12.53;77.70;99252.66;6199543;23;20079;-75
2022/05/23 05:19:15;;;;;;;4.43;1.50;;;;;;;12.61;77.46;99248.38;6225631;23;20004;-76
2022/05/23 05:21:41;;;;;;;6.20;1.70;;;;;;;12.69;77.54;99251.19;6223532;23;20035;-76
2022/05/23 05:24:06;;;;;;;2.63;1.27;;;;;;;12.77;77.47;99251.59;6199480;23;20003;-75
2022/05/23 05:26:33;;;;;;;3.97;1.70;;;;;;;12.83;77.19;99250.34;6198764;23;20061;-75
2022/05/23 05:28:59;;;;;;;3.25;1.40;;;;;;;12.85;76.99;99248.09;6224040;23;20008;-75
2022/05/23 05:31:35;;;;;;;2.53;1.50;;;;;;;12.93;77.19;99239.94;6250224;22;20012;-75
2022/05/23 05:34:28;;;;;;;1.92;1.42;;;;;;;13.09;76.83;99247.81;6252989;23;20000;-76
2022/05/23 05:37:02;;;;;;;1.45;1.00;;;;;;;13.26;76.45;99238.91;6213142;23;20007;-75
2022/05/23 05:39:31;;;;;;;2.40;1.27;;;;;;;13.38;75.79;99228.16;6250207;23;19998;-75
2022/05/23 05:42:14;;;;;;;2.83;1.35;;;;;;;13.49;75.39;99222.41;6224516;23;20043;-74
2022/05/23 05:44:44;;;;;;;1.60;0.90;;;;;;;13.59;75.38;99220.22;6250091;23;20008;-75
2022/05/23 05:47:15;;;;;;;1.55;1.02;;;;;;;13.75;75.11;99226.09;6249220;23;20014;-75
2022/05/23 05:49:44;;;;;;;0.80;0.80;;;;;;;13.89;74.59;99220.50;6249356;23;20026;-75
2022/05/23 05:52:13;;;;;;;1.45;0.80;;;;;;;14.11;74.19;99222.34;6251680;23;20040;-75
2022/05/23 05:54:40;;;;;;;0.82;0.57;;;;;;;14.25;73.67;99215.91;6223269;23;20038;-76
2022/05/23 05:57:08;;;;;;;0.70;0.50;;;;;;;14.33;73.23;99212.38;6251895;23;20012;-76
2022/05/23 05:59:34;;;;;;;0.55;0.55;;;;;;;14.45;73.39;99218.06;6251473;23;20011;-75
2022/05/23 06:01:59;;;;;;;2.85;0.77;;;;;;;14.49;72.53;99209.97;6223100;22;20015;-75
2022/05/23 06:04:25;;;;;;;4.30;0.80;;;;;;;14.49;72.45;99216.28;6198923;23;20016;-74
2022/05/23 06:12:18;;;;;;;6.18;0.90;;;;;;;14.32;72.67;99216.25;6247457;23;20359;-74
2022/05/23 06:14:44;;;;;;;1.20;0.90;;;;;;;14.27;73.37;99219.16;6198290;23;20012;-74
2022/05/23 06:17:11;;;;;;;3.33;1.05;;;;;;;14.23;73.15;99202.50;6197736;23;20773;-74
2022/05/23 06:19:47;;;;;;;0.85;0.60;;;;;;;14.29;73.35;99209.47;6223479;22;20447;-75
2022/05/23 06:22:14;;;;;;;1.58;0.82;;;;;;;14.32;73.06;99205.25;6250893;23;20313;-75
2022/05/23 06:24:40;;;;;;;3.30;1.00;;;;;;;14.34;73.13;99208.50;6221526;22;20008;-76
2022/05/23 06:27:08;;;;;;;2.20;0.65;;;;;;;14.39;72.99;99202.84;6199018;23;20004;-76
2022/05/23 06:29:35;;;;;;;2.95;1.10;;;;;;;14.44;73.42;99186.19;6252548;23;19991;-76
2022/05/23 06:32:04;;;;;;;2.80;0.80;;;;;;;14.49;72.98;99196.22;6253629;23;20027;-74
2022/05/23 06:34:29;;;;;;;4.85;0.93;;;;;;;14.57;72.31;99200.13;6249735;23;20069;-77
2022/05/23 06:36:56;;;;;;;3.33;1.15;;;;;;;14.61;72.57;99190.09;6251393;23;20382;-75
2022/05/23 06:39:23;;;;;;;2.95;0.80;;;;;;;14.77;71.83;99198.69;6223342;23;20012;-75
2022/05/23 06:41:49;;;;;;;2.92;1.00;;;;;;;14.95;71.84;99191.22;6222081;23;20389;-75
2022/05/23 06:44:15;;;;;;;5.07;0.90;;;;;;;15.12;70.55;99193.97;6250495;23;19996;-75
2022/05/23 06:46:41;;;;;;;2.83;0.80;;;;;;;15.21;70.45;99195.91;6222850;23;20008;-75
2022/05/23 06:49:07;;;;;;;4.38;1.17;;;;;;;15.33;70.00;99198.78;6222277;23;20015;-76
2022/05/23 06:51:34;;;;;;;7.72;1.20;;;;;;;15.45;69.74;99190.66;6199007;23;20565;-76
2022/05/23 06:54:00;;;;;;;2.38;1.05;;;;;;;15.59;69.61;99186.88;6223017;23;20534;-75
2022/05/23 06:56:27;;;;;;;2.95;1.08;;;;;;;15.79;68.31;99188.94;6198152;23;20016;-74
2022/05/23 06:58:54;;;;;;;1.77;0.60;;;;;;;16.10;68.07;99176.78;6223583;23;20010;-77
2022/05/23 07:01:20;;;;;;;7.13;0.90;;;;;;;16.47;67.01;99178.97;6176911;23;20415;-79
2022/05/23 07:03:46;;;;;;;3.72;1.00;;;;;;;16.76;66.16;99175.31;6254555;23;20011;-77
2022/05/23 07:14:26;;;;;;;3.97;0.95;;;;;;;17.38;63.91;99167.28;6209261;23;20248;-77
2022/05/23 07:16:52;;;;;;;5.68;1.10;;;;;;;17.72;63.13;99168.03;6202956;23;20407;-77
2022/05/23 07:19:17;;;;;;;3.55;1.10;;;;;;;18.13;61.37;99169.75;6224100;23;20062;-75
2022/05/23 07:21:42;;;;;;;5.13;1.10;;;;;;;18.21;60.32;99165.28;6198221;23;20014;-76
2022/05/23 07:24:08;;;;;;;9.93;1.70;;;;;;;18.41;59.24;99157.16;6221045;23;20008;-76
2022/05/23 07:26:33;;;;;;;5.65;1.20;;;;;;;18.67;58.33;99163.09;6248964;23;20004;-76
2022/05/23 07:28:59;;;;;;;7.78;1.02;;;;;;;18.58;58.29;99151.34;6198061;23;20012;-75
2022/05/23 07:31:26;;;;;;;7.20;1.20;;;;;;;18.63;57.98;99159.41;6224823;23;20015;-76
2022/05/23 07:33:51;;;;;;;3.97;1.30;;;;;;;18.40;58.53;99166.59;6249888;23;20000;-77
2022/05/23 07:36:18;;;;;;;2.72;0.85;;;;;;;18.17;59.02;99163.56;6220878;23;20077;-76
2022/05/23 07:38:44;;;;;;;6.05;1.52;;;;;;;18.15;58.98;99163.91;6217909;23;20015;-75
2022/05/23 07:41:11;;;;;;;3.10;1.02;;;;;;;18.01;58.64;99157.91;6198626;23;20012;-76
2022/05/23 07:43:39;;;;;;;9.15;1.50;;;;;;;17.90;57.39;99158.38;6199366;23;20059;-75
2022/05/23 07:46:10;;;;;;;3.58;0.98;;;;;;;17.93;58.17;99154.09;6251952;23;20019;-76
2022/05/23 07:48:38;;;;;;;5.03;1.15;;;;;;;18.26;56.33;99134.59;6221491;23;20027;-75
2022/05/23 07:51:03;;;;;;;6.70;1.35;;;;;;;18.74;55.81;99147.84;6251330;23;20000;-77
2022/05/23 08:01:41;;;;;;;5.78;1.50;;;;;;;20.42;50.31;99133.84;6225043;23;20019;-76
2022/05/23 08:04:08;;;;;;;6.18;1.75;;;;;;;20.92;49.69;99139.63;6171732;23;20079;-75
2022/05/23 08:06:33;;;;;;;4.40;1.45;;;;;;;21.31;47.54;99122.88;6196817;22;20004;-76
2022/05/23 08:08:59;;;;;;;3.17;1.05;;;;;;;21.48;47.42;99126.34;6222681;23;19999;-75
2022/05/23 08:11:24;;;;;;;6.93;1.90;;;;;;;21.54;46.14;99124.91;6245429;23;20008;-75
2022/05/23 08:13:54;;;;;;;9.70;1.45;;;;;;;21.07;46.09;99126.81;6218660;23;20015;-75
2022/05/23 08:16:19;;;;;;;9.43;1.23;;;;;;;20.89;47.18;99129.25;6220366;23;20012;-75
2022/05/23 08:18:45;;;;;;;8.55;1.48;;;;;;;20.78;46.18;99123.50;6222311;22;20008;-77
2022/05/23 08:21:10;;;;;;;7.03;1.52;;;;;;;20.63;46.02;99127.13;6197392;23;20349;-76
2022/05/23 08:23:36;;;;;;;10.20;1.35;;;;;;;20.69;45.66;99120.94;6222658;23;20379;-76
2022/05/23 08:26:02;;;;;;;4.00;1.02;;;;;;;20.43;46.33;99124.34;6223195;22;20011;-76
2022/05/23 08:28:28;;;;;;;3.65;1.30;;;;;;;20.37;47.08;99120.22;6222429;23;20000;-75
2022/05/23 08:30:54;;;;;;;5.47;0.98;;;;;;;20.24;46.98;99114.03;6222840;23;20058;-75
2022/05/23 08:33:21;;;;;;;4.18;1.10;;;;;;;20.26;47.55;99106.13;6221749;23;20454;-75
2022/05/23 08:35:48;;;;;;;4.05;0.90;;;;;;;20.40;46.84;99112.00;6221867;23;20054;-77
2022/05/23 08:38:14;;;;;;;6.45;1.40;;;;;;;20.60;47.39;99117.53;6219131;23;20025;-75
2022/05/23 08:40:55;;;;;;;7.72;1.48;;;;;;;20.56;46.07;99116.69;6220597;22;20020;-75
2022/05/23 08:43:43;;;;;;;8.93;1.13;;;;;;;20.15;45.51;99121.72;6250078;23;20015;-75
2022/05/23 08:46:17;;;;;;;4.80;1.02;;;;;;;19.80;46.90;99114.19;6200318;23;20007;-75
2022/05/23 08:48:52;;;;;;;8.43;1.23;;;;;;;20.17;45.79;99119.41;6252317;23;20009;-76
2022/05/23 08:51:31;;;;;;;6.30;1.13;;;;;;;20.32;45.08;99126.88;6226279;23;19999;-82
2022/05/23 08:54:06;;;;;;;9.30;1.42;;;;;;;20.79;45.04;99125.09;6205816;23;20074;-78
2022/05/23 08:56:37;;;;;;;8.05;0.90;;;;;;;21.39;44.04;99121.84;6246818;23;20638;-75
2022/05/23 08:59:09;;;;;;;13.65;2.13;;;;;;;21.81;42.97;99117.38;6224506;23;19992;-74
2022/05/23 09:01:52;;;;;;;8.70;1.67;;;;;;;22.31;42.27;99120.06;6223074;23;20000;-77
2022/05/23 09:04:57;;;;;;;5.15;1.60;;;;;;;22.70;41.07;99117.03;6250080;23;20034;-78
2022/05/23 09:07:35;;;;;;;11.63;1.50;;;;;;;22.43;41.25;99108.75;6251750;23;20016;-76
2022/05/23 09:10:05;;;;;;;2.53;0.77;;;;;;;22.84;41.49;99111.63;6226894;22;20329;-76
2022/05/23 09:12:31;;;;;;;2.55;0.70;;;;;;;23.63;40.95;99106.03;6253453;23;20822;-77
2022/05/23 09:14:56;;;;;;;7.90;0.90;;;;;;;24.05;38.55;99106.75;6225648;23;20047;-75
2022/05/23 09:17:28;;;;;;;8.63;1.35;;;;;;;23.64;38.09;99101.22;6224321;23;20004;-75
2022/05/23 09:20:05;;;;;;;7.65;1.27;;;;;;;23.36;38.11;99083.06;6252471;23;20035;-76
2022/05/23 09:22:43;;;;;;;7.90;1.23;;;;;;;23.32;38.74;99093.41;6253796;23;20035;-76
2022/05/23 09:25:11;;;;;;;14.65;1.30;;;;;;;23.59;37.83;99082.06;6226113;23;20067;-76
2022/05/23 09:27:41;;;;;;;10.32;1.50;;;;;;;23.17;38.07;99098.84;6222879;23;20011;-76
2022/05/23 09:30:14;;;;;;;5.10;0.75;;;;;;;22.89;38.85;99073.44;6222431;23;19990;-76
2022/05/23 09:32:55;;;;;;;7.07;1.30;;;;;;;22.75;38.85;99090.78;6222793;23;20011;-77
2022/05/23 09:35:33;;;;;;;5.18;1.30;;;;;;;22.85;37.87;99087.31;6224917;23;20058;-76
2022/05/23 09:38:17;;;;;;;5.93;0.90;;;;;;;22.84;38.02;99083.75;6220871;23;19988;-77
2022/05/23 09:40:43;;;;;;;2.50;0.90;;;;;;;23.24;38.49;99077.78;6220429;23;20754;-78
2022/05/23 09:49:12;;;;;;;3.17;1.10;;;;;;;24.45;34.60;99081.81;6253709;23;20050;-78
2022/05/23 09:51:58;;;;;;;3.53;1.02;;;;;;;24.64;34.37;99083.50;6224382;23;20095;-78
2022/05/23 09:54:59;;;;;;;4.80;1.10;;;;;;;25.43;34.14;99089.25;6229493;23;20027;-78
2022/05/23 09:57:33;;;;;;;6.95;0.85;;;;;;;25.56;31.90;99073.66;6147434;23;20062;-77
2022/05/23 10:00:06;;;;;;;4.05;1.10;;;;;;;25.51;33.00;99073.25;6245645;23;20011;-75
2022/05/23 10:02:31;;;;;;;4.20;0.95;;;;;;;25.39;32.08;99071.66;6226138;23;20007;-77
2022/05/23 10:04:57;;;;;;;2.63;0.95;;;;;;;25.60;32.11;99068.88;6225352;23;20008;-78
2022/05/23 10:07:33;;;;;;;3.53;0.80;;;;;;;25.73;32.64;99074.03;6220201;23;20052;-77
2022/05/23 10:10:20;;;;;;;4.03;0.85;;;;;;;25.41;31.84;99075.69;6223351;22;20008;-76
2022/05/23 10:12:48;;;;;;;5.78;1.05;;;;;;;24.88;31.94;99070.78;6225885;23;19999;-79
2022/05/23 10:15:25;;;;;;;4.25;1.30;;;;;;;24.75;33.29;99075.97;6204355;23;20039;-78
2022/05/23 10:18:06;;;;;;;2.28;0.75;;;;;;;24.95;33.33;99075.59;6227566;22;20072;-79
2022/05/23 10:20:39;;;;;;;2.13;0.70;;;;;;;25.60;31.81;99077.25;6255503;23;20100;-76
2022/05/23 10:23:15;;;;;;;3.67;0.85;;;;;;;25.74;31.30;99081.25;6230250;23;20031;-78
2022/05/23 10:25:56;;;;;;;3.80;1.10;;;;;;;26.40;30.95;99071.50;6229384;23;20012;-78
2022/05/23 10:28:47;;;;;;;3.22;1.15;;;;;;;26.73;30.01;99072.97;6226074;22;20039;-76
2022/05/23 10:31:17;;;;;;;4.07;1.17;;;;;;;27.10;28.63;99067.94;6229112;23;20015;-78
2022/05/23 10:33:46;;;;;;;5.22;1.17;;;;;;;26.87;29.57;99060.91;6253208;23;20012;-78
2022/05/23 10:36:25;;;;;;;1.73;0.70;;;;;;;26.25;29.54;99059.56;6224828;23;20088;-77
2022/05/23 10:42:07;;;;;;;4.63;1.20;;;;;;;25.54;30.32;99059.28;6251453;23;20023;-78
2022/05/23 10:45:00;;;;;;;3.38;0.60;;;;;;;24.96;32.72;99066.03;6252895;22;20032;-79
2022/05/23 10:47:56;;;;;;;5.88;1.05;;;;;;;24.04;32.97;99057.69;6225432;23;20020;-77
2022/05/23 10:50:44;;;;;;;4.22;1.02;;;;;;;23.26;34.83;99058.69;6229938;23;20004;-77
2022/05/23 10:53:28;;;;;;;2.45;0.73;;;;;;;22.87;36.64;99059.06;6254792;23;20003;-77
2022/05/23 10:56:15;;;;;;;6.07;0.63;;;;;;;22.50;37.25;99046.75;6230307;23;20066;-77
2022/05/23 10:58:59;;;;;;;8.35;0.88;;;;;;;23.00;37.22;99057.63;6227638;23;20004;-78
2022/05/23 11:01:42;;;;;;;3.67;0.90;;;;;;;25.30;33.88;99051.66;6258130;23;20000;-76
2022/05/23 11:04:33;;;;;;;3.05;0.88;;;;;;;25.30;32.97;99057.25;6232144;23;20012;-77
2022/05/23 11:06:58;;;;;;;6.53;1.17;;;;;;;26.07;30.87;99056.81;6229864;23;20066;-77
2022/05/23 11:09:33;;;;;;;3.13;0.80;;;;;;;26.02;30.43;99057.22;6252956;23;20008;-79
2022/05/23 11:12:16;;;;;;;3.50;1.17;;;;;;;26.74;30.09;99068.19;6248784;23;20031;-78
2022/05/23 11:15:01;;;;;;;5.38;0.95;;;;;;;27.64;28.71;99056.31;6252656;23;20007;-77
2022/05/23 11:17:34;;;;;;;2.63;0.95;;;;;;;26.64;29.76;99064.97;6221320;23;20019;-80
2022/05/23 11:20:21;;;;;;;4.07;0.60;;;;;;;25.20;31.92;99054.06;6222830;23;20004;-81
2022/05/23 11:22:53;;;;;;;2.08;0.70;;;;;;;24.57;32.79;99048.72;6217948;23;20253;-78
2022/05/23 11:25:27;;;;;;;3.88;0.63;;;;;;;25.08;32.71;99040.47;6214196;23;20012;-78
2022/05/23 11:34:11;;;;;;;2.13;0.57;;;;;;;33.88;22.58;99049.94;6248093;22;20024;-76
2022/05/23 11:39:49;;;;;;;1.55;0.50;;;;;;;33.35;21.86;99050.53;6201824;23;20111;-78
2022/05/23 11:42:37;;;;;;;4.43;0.70;;;;;;;31.70;22.52;99041.22;6216254;23;20015;-79
2022/05/23 11:48:26;;;;;;;1.85;0.60;;;;;;;29.53;25.12;99031.75;6175382;23;20008;-77
2022/05/23 11:51:09;;;;;;;4.70;0.82;;;;;;;28.58;26.29;99033.59;6217543;23;20082;-80
2022/05/23 11:53:40;;;;;;;3.13;0.95;;;;;;;27.07;28.29;99019.09;6246413;23;20027;-79
2022/05/23 11:56:09;;;;;;;2.13;0.52;;;;;;;25.55;30.22;99030.09;6160250;23;20344;-79
2022/05/23 11:58:47;;;;;;;4.50;0.57;;;;;;;24.83;32.21;99029.25;6189217;22;20420;-78
2022/05/23 12:01:26;;;;;;;;;;;;;;;;;;;;;
2022/05/23 12:11:55;;;;;;;3.83;0.40;;;;;;;29.60;25.28;99044.94;6127499;22;20068;-78
2022/05/23 12:14:41;;;;;;;1.55;0.32;;;;;;;35.25;20.00;99043.94;6216001;23;20561;-79
2022/05/23 12:17:25;;;;;;;1.48;0.50;;;;;;;37.76;15.95;99052.81;6211222;22;19992;-78
2022/05/23 12:19:56;;;;;;;3.22;0.57;;;;;;;36.19;17.52;99046.44;6215038;23;20005;-77
2022/05/23 12:22:32;;;;;;;1.55;0.40;;;;;;;34.46;19.14;99042.19;6163761;23;20008;-79
2022/05/23 12:25:01;;;;;;;0.40;0.35;;;;;;;33.78;19.56;99033.34;6214580;23;20020;-79
2022/05/23 12:27:39;;;;;;;0.55;0.30;;;;;;;32.42;20.97;99023.06;6212587;22;19984;-77
2022/05/23 12:30:16;;;;;;;1.20;0.30;;;;;;;30.50;22.43;99039.59;6189911;23;20028;-78
2022/05/23 12:32:43;;;;;;;1.77;0.57;;;;;;;29.53;23.97;99020.50;6215189;23;20043;-79
2022/05/23 12:35:13;;;;;;;1.52;0.45;;;;;;;31.49;21.83;99015.88;6164584;23;19996;-78
2022/05/23 12:37:48;;;;;;;1.23;0.40;;;;;;;33.97;18.59;99022.94;6167513;23;20020;-79
2022/05/23 12:40:26;;;;;;;3.38;0.63;;;;;;;35.38;17.62;99027.63;6217687;23;20008;-81
2022/05/23 12:43:12;;;;;;;2.50;0.40;;;;;;;35.49;17.23;99024.31;6192236;23;20012;-79
2022/05/23 12:46:09;;;;;;;3.85;0.30;;;;;;;32.30;20.08;99015.34;6217046;22;20009;-76
2022/05/23 12:48:48;;;;;;;4.38;0.45;;;;;;;29.87;22.73;99024.34;6217168;23;20036;-77
2022/05/23 12:51:44;;;;;;;2.53;0.47;;;;;;;28.42;24.52;99013.75;6215155;23;20087;-77
2022/05/23 12:54:17;;;;;;;2.33;0.40;;;;;;;26.82;27.32;99013.63;6214622;23;20008;-76
2022/05/23 12:56:57;;;;;;;1.00;0.35;;;;;;;25.54;29.15;99010.91;6214918;23;20020;-76
2022/05/23 12:59:41;;;;;;;1.75;0.32;;;;;;;24.34;31.30;98997.94;6218026;23;20001;-76
2022/05/23 13:02:20;;;;;;;2.90;0.40;;;;;;;24.20;31.45;98985.53;6191180;23;20036;-76
2022/05/23 13:04:59;;;;;;;0.52;0.25;;;;;;;23.97;30.13;98979.47;6218796;23;20024;-75
2022/05/23 13:07:34;;;;;;;2.13;0.50;;;;;;;23.91;30.92;98983.84;6217248;23;19997;-77
2022/05/23 13:10:10;;;;;;;0.70;0.22;;;;;;;24.44;30.20;98986.00;6219895;23;20031;-76
2022/05/23 13:13:05;;;;;;;0.57;0.20;;;;;;;27.18;27.12;98988.13;6217062;23;20016;-76
2022/05/23 13:15:36;;;;;;;0.95;0.30;;;;;;;30.38;22.69;98984.66;6218458;23;20785;-76
2022/05/23 13:23:39;;;;;;;0.70;0.20;;;;;;;32.82;19.98;98959.63;6199476;22;20460;-76
2022/05/23 14:29:18;;;;;;;5.78;0.60;;;;;;;26.25;27.41;98953.88;6022660;23;20046;-77
2022/05/23 14:32:12;;;;;;;1.67;0.50;;;;;;;24.86;29.89;98950.19;6054466;23;20010;-75
2022/05/23 14:34:44;;;;;;;1.95;0.38;;;;;;;24.28;30.84;98935.28;6047030;23;20019;-75
2022/05/23 14:37:18;;;;;;;4.10;0.47;;;;;;;24.12;31.17;98947.59;6078192;23;20008;-76
2022/05/23 14:39:50;;;;;;;0.90;0.40;;;;;;;24.14;31.84;98938.88;6078659;23;19998;-76
2022/05/23 14:42:48;;;;;;;4.97;0.68;;;;;;;23.53;32.54;98956.88;6132559;23;20005;-75
2022/05/23 14:45:32;;;;;;;0.93;0.28;;;;;;;22.60;33.62;98951.34;6142633;23;20004;-76
2022/05/23 14:48:19;;;;;;;1.40;0.40;;;;;;;21.48;36.08;98937.25;6221992;23;20005;-76